sensor_id;sensor_type;location;lat;lon;timestamp;temperature;humidity
8220;DHT22;4151;51.110;7.020;2024-01-15T00:00:42;0.80;99.90
8220;DHT22;4151;51.110;7.020;2024-01-15T00:03:08;0.80;99.90
8220;DHT22;4151;51.110;7.020;2024-01-15T00:05:34;0.80;99.90
8220;DHT22;4151;51.110;7.020;2024-01-15T00:08:00;0.80;99.90
8220;DHT22;4151;51.110;7.020;2024-01-15T00:10:25;0.80;99.90
8220;DHT22;4151;51.110;7.020;2024-01-15T00:12:51;0.80;99.90
8220;DHT22;4151;51.110;7.020;2024-01-15T00:15:16;0.70;99.90
8220;DHT22;4151;51.110;7.020;2024-01-15T00:17:42;0.70;99.90
8220;DHT22;4151;51.110;7.020;2024-01-15T00:20:08;0.60;99.90
8220;DHT22;4151;51.110;7.020;2024-01-15T00:22:33;0.60;99.90
8220;DHT22;4151;51.110;7.020;2024-01-15T00:25:01;0.60;99.90
8220;DHT22;4151;51.110;7.020;2024-01-15T00:27:27;0.50;99.90
8220;DHT22;4151;51.110;7.020;2024-01-15T00:29:52;0.50;99.90
8220;DHT22;4151;51.110;7.020;2024-01-15T00:32:19;0.50;99.90
8220;DHT22;4151;51.110;7.020;2024-01-15T00:34:45;0.50;99.90
8220;DHT22;4151;51.110;7.020;2024-01-15T00:37:11;0.50;99.90
8220;DHT22;4151;51.110;7.020;2024-01-15T00:39:37;0.40;99.90
8220;DHT22;4151;51.110;7.020;2024-01-15T00:42:02;0.40;99.90
8220;DHT22;4151;51.110;7.020;2024-01-15T00:44:28;0.40;99.90
8220;DHT22;4151;51.110;7.020;2024-01-15T00:46:53;0.50;99.90
8220;DHT22;4151;51.110;7.020;2024-01-15T00:49:19;0.40;99.90
8220;DHT22;4151;51.110;7.020;2024-01-15T00:51:45;0.50;99.90
8220;DHT22;4151;51.110;7.020;2024-01-15T00:54:10;0.50;99.90
8220;DHT22;4151;51.110;7.020;2024-01-15T00:56:36;0.40;99.90
8220;DHT22;4151;51.110;7.020;2024-01-15T00:59:02;0.50;99.90
8220;DHT22;4151;51.110;7.020;2024-01-15T01:01:27;0.50;99.90
8220;DHT22;4151;51.110;7.020;2024-01-15T01:03:53;0.50;99.90
8220;DHT22;4151;51.110;7.020;2024-01-15T01:06:19;0.50;99.90
8220;DHT22;4151;51.110;7.020;2024-01-15T01:08:44;0.50;99.90
8220;DHT22;4151;51.110;7.020;2024-01-15T01:11:13;0.50;99.90
8220;DHT22;4151;51.110;7.020;2024-01-15T01:13:39;0.50;99.90
8220;DHT22;4151;51.110;7.020;2024-01-15T01:16:04;0.50;99.90
8220;DHT22;4151;51.110;7.020;2024-01-15T01:18:30;0.50;99.90
8220;DHT22;4151;51.110;7.020;2024-01-15T01:20:55;0.50;99.90
8220;DHT22;4151;51.110;7.020;2024-01-15T01:23:21;0.50;99.90
8220;DHT22;4151;51.110;7.020;2024-01-15T01:25:46;0.50;99.90
8220;DHT22;4151;51.110;7.020;2024-01-15T01:28:12;0.60;99.90
8220;DHT22;4151;51.110;7.020;2024-01-15T01:30:37;0.60;99.90
8220;DHT22;4151;51.110;7.020;2024-01-15T01:33:03;0.60;99.90
8220;DHT22;4151;51.110;7.020;2024-01-15T01:35:28;0.60;99.90
8220;DHT22;4151;51.110;7.020;2024-01-15T01:37:54;0.60;99.90
8220;DHT22;4151;51.110;7.020;2024-01-15T01:40:20;0.60;99.90
8220;DHT22;4151;51.110;7.020;2024-01-15T01:42:45;0.70;99.90
8220;DHT22;4151;51.110;7.020;2024-01-15T01:45:11;0.70;99.90
8220;DHT22;4151;51.110;7.020;2024-01-15T01:47:37;0.60;99.90
8220;DHT22;4151;51.110;7.020;2024-01-15T01:50:03;0.70;99.90
8220;DHT22;4151;51.110;7.020;2024-01-15T01:52:31;0.70;99.90
8220;DHT22;4151;51.110;7.020;2024-01-15T01:54:57;0.70;99.90
8220;DHT22;4151;51.110;7.020;2024-01-15T01:57:24;0.70;99.90
8220;DHT22;4151;51.110;7.020;2024-01-15T01:59:49;0.70;99.90
8220;DHT22;4151;51.110;7.020;2024-01-15T02:02:16;0.70;99.90
8220;DHT22;4151;51.110;7.020;2024-01-15T02:04:42;0.70;99.90
8220;DHT22;4151;51.110;7.020;2024-01-15T02:07:07;0.70;99.90
8220;DHT22;4151;51.110;7.020;2024-01-15T02:09:35;0.80;99.90
8220;DHT22;4151;51.110;7.020;2024-01-15T02:12:01;0.80;99.90
8220;DHT22;4151;51.110;7.020;2024-01-15T02:14:26;0.80;99.90
8220;DHT22;4151;51.110;7.020;2024-01-15T02:16:52;0.80;99.90
8220;DHT22;4151;51.110;7.020;2024-01-15T02:19:18;0.80;99.90
8220;DHT22;4151;51.110;7.020;2024-01-15T02:21:44;0.80;99.90
8220;DHT22;4151;51.110;7.020;2024-01-15T02:24:10;0.80;99.90
8220;DHT22;4151;51.110;7.020;2024-01-15T02:26:36;0.80;99.90
8220;DHT22;4151;51.110;7.020;2024-01-15T02:29:04;0.80;99.90
8220;DHT22;4151;51.110;7.020;2024-01-15T02:31:30;0.80;99.90
8220;DHT22;4151;51.110;7.020;2024-01-15T02:33:55;0.90;99.90
8220;DHT22;4151;51.110;7.020;2024-01-15T02:36:21;0.90;99.90
8220;DHT22;4151;51.110;7.020;2024-01-15T02:38:46;0.90;99.90
8220;DHT22;4151;51.110;7.020;2024-01-15T02:41:12;0.90;99.90
8220;DHT22;4151;51.110;7.020;2024-01-15T02:43:40;0.90;99.90
8220;DHT22;4151;51.110;7.020;2024-01-15T02:46:06;0.90;99.90
8220;DHT22;4151;51.110;7.020;2024-01-15T02:48:31;0.90;99.90
8220;DHT22;4151;51.110;7.020;2024-01-15T02:50:58;0.90;99.90
8220;DHT22;4151;51.110;7.020;2024-01-15T02:53:23;0.90;99.90
8220;DHT22;4151;51.110;7.020;2024-01-15T02:55:49;0.90;99.90
8220;DHT22;4151;51.110;7.020;2024-01-15T02:58:14;0.90;99.90
8220;DHT22;4151;51.110;7.020;2024-01-15T03:00:40;0.90;99.90
8220;DHT22;4151;51.110;7.020;2024-01-15T03:03:06;1.00;99.90
8220;DHT22;4151;51.110;7.020;2024-01-15T03:05:31;1.00;99.90
8220;DHT22;4151;51.110;7.020;2024-01-15T03:07:57;1.00;99.90
8220;DHT22;4151;51.110;7.020;2024-01-15T03:10:22;0.90;99.90
8220;DHT22;4151;51.110;7.020;2024-01-15T03:12:48;1.00;99.90
8220;DHT22;4151;51.110;7.020;2024-01-15T03:15:13;1.00;99.90
8220;DHT22;4151;51.110;7.020;2024-01-15T03:17:39;1.00;99.90
8220;DHT22;4151;51.110;7.020;2024-01-15T03:20:06;1.00;99.90
8220;DHT22;4151;51.110;7.020;2024-01-15T03:22:32;1.00;99.90
8220;DHT22;4151;51.110;7.020;2024-01-15T03:24:58;1.00;99.90
8220;DHT22;4151;51.110;7.020;2024-01-15T03:27:23;1.00;99.90
8220;DHT22;4151;51.110;7.020;2024-01-15T03:29:49;1.00;99.90
8220;DHT22;4151;51.110;7.020;2024-01-15T03:32:14;1.00;99.90
8220;DHT22;4151;51.110;7.020;2024-01-15T03:34:41;1.00;99.90
8220;DHT22;4151;51.110;7.020;2024-01-15T03:37:07;1.00;99.90
8220;DHT22;4151;51.110;7.020;2024-01-15T03:39:32;1.00;99.90
8220;DHT22;4151;51.110;7.020;2024-01-15T03:41:58;1.00;99.90
8220;DHT22;4151;51.110;7.020;2024-01-15T03:44:23;1.00;99.90
8220;DHT22;4151;51.110;7.020;2024-01-15T03:46:49;1.00;99.90
8220;DHT22;4151;51.110;7.020;2024-01-15T03:49:14;1.10;99.90
8220;DHT22;4151;51.110;7.020;2024-01-15T03:51:40;1.10;99.90
8220;DHT22;4151;51.110;7.020;2024-01-15T03:54:05;1.10;99.90
8220;DHT22;4151;51.110;7.020;2024-01-15T03:56:31;1.10;99.90
8220;DHT22;4151;51.110;7.020;2024-01-15T03:58:57;1.10;99.90
8220;DHT22;4151;51.110;7.020;2024-01-15T04:01:23;1.10;99.90
8220;DHT22;4151;51.110;7.020;2024-01-15T04:03:48;1.10;99.90
8220;DHT22;4151;51.110;7.020;2024-01-15T04:06:14;1.10;99.90
8220;DHT22;4151;51.110;7.020;2024-01-15T04:08:39;1.10;99.90
8220;DHT22;4151;51.110;7.020;2024-01-15T04:11:05;1.10;99.90
8220;DHT22;4151;51.110;7.020;2024-01-15T04:13:33;1.10;99.90
8220;DHT22;4151;51.110;7.020;2024-01-15T04:16:00;0.90;99.90
8220;DHT22;4151;51.110;7.020;2024-01-15T04:18:25;1.10;99.90
8220;DHT22;4151;51.110;7.020;2024-01-15T04:20:51;1.10;99.90
8220;DHT22;4151;51.110;7.020;2024-01-15T04:23:16;1.00;99.90
8220;DHT22;4151;51.110;7.020;2024-01-15T04:25:42;1.10;99.90
8220;DHT22;4151;51.110;7.020;2024-01-15T04:28:09;1.00;99.90
8220;DHT22;4151;51.110;7.020;2024-01-15T04:30:34;1.10;99.90
8220;DHT22;4151;51.110;7.020;2024-01-15T04:33:00;1.00;99.90
8220;DHT22;4151;51.110;7.020;2024-01-15T04:35:26;1.10;99.90
8220;DHT22;4151;51.110;7.020;2024-01-15T04:37:52;1.00;99.90
8220;DHT22;4151;51.110;7.020;2024-01-15T04:40:17;1.10;99.90
8220;DHT22;4151;51.110;7.020;2024-01-15T04:42:43;1.00;99.90
8220;DHT22;4151;51.110;7.020;2024-01-15T04:45:11;1.00;99.90
8220;DHT22;4151;51.110;7.020;2024-01-15T04:47:36;1.00;99.90
8220;DHT22;4151;51.110;7.020;2024-01-15T04:50:03;1.00;99.90
8220;DHT22;4151;51.110;7.020;2024-01-15T04:52:29;1.00;99.90
8220;DHT22;4151;51.110;7.020;2024-01-15T04:54:54;1.00;99.90
8220;DHT22;4151;51.110;7.020;2024-01-15T04:57:20;1.00;99.90
8220;DHT22;4151;51.110;7.020;2024-01-15T04:59:45;1.00;99.90
8220;DHT22;4151;51.110;7.020;2024-01-15T05:02:11;1.10;99.90
8220;DHT22;4151;51.110;7.020;2024-01-15T05:04:36;1.10;99.90
8220;DHT22;4151;51.110;7.020;2024-01-15T05:07:02;1.10;99.90
8220;DHT22;4151;51.110;7.020;2024-01-15T05:09:27;1.10;99.90
8220;DHT22;4151;51.110;7.020;2024-01-15T05:11:54;1.10;99.90
8220;DHT22;4151;51.110;7.020;2024-01-15T05:14:19;1.10;99.90
8220;DHT22;4151;51.110;7.020;2024-01-15T05:16:48;1.10;99.90
8220;DHT22;4151;51.110;7.020;2024-01-15T05:19:14;1.10;99.90
8220;DHT22;4151;51.110;7.020;2024-01-15T05:21:40;1.10;99.90
8220;DHT22;4151;51.110;7.020;2024-01-15T05:24:05;1.20;99.90
8220;DHT22;4151;51.110;7.020;2024-01-15T05:26:31;1.10;99.90
8220;DHT22;4151;51.110;7.020;2024-01-15T05:28:57;1.20;99.90
8220;DHT22;4151;51.110;7.020;2024-01-15T05:31:22;1.20;99.90
8220;DHT22;4151;51.110;7.020;2024-01-15T05:33:48;1.20;99.90
8220;DHT22;4151;51.110;7.020;2024-01-15T05:36:13;1.20;99.90
8220;DHT22;4151;51.110;7.020;2024-01-15T05:38:39;1.20;99.90
8220;DHT22;4151;51.110;7.020;2024-01-15T05:41:05;1.20;99.90
8220;DHT22;4151;51.110;7.020;2024-01-15T05:43:31;1.20;99.90
8220;DHT22;4151;51.110;7.020;2024-01-15T05:45:57;1.20;99.90
8220;DHT22;4151;51.110;7.020;2024-01-15T05:48:22;1.20;99.90
8220;DHT22;4151;51.110;7.020;2024-01-15T05:50:48;1.20;99.90
8220;DHT22;4151;51.110;7.020;2024-01-15T05:53:13;1.20;99.90
8220;DHT22;4151;51.110;7.020;2024-01-15T05:55:40;1.30;99.90
8220;DHT22;4151;51.110;7.020;2024-01-15T05:58:05;1.30;99.90
8220;DHT22;4151;51.110;7.020;2024-01-15T06:00:31;1.30;99.90
8220;DHT22;4151;51.110;7.020;2024-01-15T06:02:58;1.30;99.90
8220;DHT22;4151;51.110;7.020;2024-01-15T06:05:24;1.30;99.90
8220;DHT22;4151;51.110;7.020;2024-01-15T06:07:50;1.30;99.90
8220;DHT22;4151;51.110;7.020;2024-01-15T06:10:15;1.30;99.90
8220;DHT22;4151;51.110;7.020;2024-01-15T06:12:43;1.30;99.90
8220;DHT22;4151;51.110;7.020;2024-01-15T06:15:09;1.30;99.90
8220;DHT22;4151;51.110;7.020;2024-01-15T06:17:34;1.30;99.90
8220;DHT22;4151;51.110;7.020;2024-01-15T06:20:00;1.30;99.90
8220;DHT22;4151;51.110;7.020;2024-01-15T06:22:25;1.30;99.90
8220;DHT22;4151;51.110;7.020;2024-01-15T06:24:51;1.30;99.90
8220;DHT22;4151;51.110;7.020;2024-01-15T06:27:16;1.30;99.90
8220;DHT22;4151;51.110;7.020;2024-01-15T06:29:45;1.30;99.90
8220;DHT22;4151;51.110;7.020;2024-01-15T06:32:12;1.30;99.90
8220;DHT22;4151;51.110;7.020;2024-01-15T06:34:37;1.30;99.90
8220;DHT22;4151;51.110;7.020;2024-01-15T06:37:03;1.30;99.90
8220;DHT22;4151;51.110;7.020;2024-01-15T06:39:28;1.40;99.90
8220;DHT22;4151;51.110;7.020;2024-01-15T06:41:54;1.40;99.90
8220;DHT22;4151;51.110;7.020;2024-01-15T06:44:20;1.40;99.90
8220;DHT22;4151;51.110;7.020;2024-01-15T06:46:47;1.40;99.90
8220;DHT22;4151;51.110;7.020;2024-01-15T06:49:12;1.40;99.90
8220;DHT22;4151;51.110;7.020;2024-01-15T06:51:38;1.40;99.90
8220;DHT22;4151;51.110;7.020;2024-01-15T06:54:04;1.40;99.90
8220;DHT22;4151;51.110;7.020;2024-01-15T06:56:30;1.40;99.90
8220;DHT22;4151;51.110;7.020;2024-01-15T06:58:56;1.40;99.90
8220;DHT22;4151;51.110;7.020;2024-01-15T07:01:22;1.40;99.90
8220;DHT22;4151;51.110;7.020;2024-01-15T07:03:47;1.40;99.90
8220;DHT22;4151;51.110;7.020;2024-01-15T07:06:13;1.40;99.90
8220;DHT22;4151;51.110;7.020;2024-01-15T07:08:39;1.30;99.90
8220;DHT22;4151;51.110;7.020;2024-01-15T07:11:05;1.30;99.90
8220;DHT22;4151;51.110;7.020;2024-01-15T07:13:31;1.30;99.90
8220;DHT22;4151;51.110;7.020;2024-01-15T07:15:57;1.30;99.90
8220;DHT22;4151;51.110;7.020;2024-01-15T07:18:23;1.30;99.90
8220;DHT22;4151;51.110;7.020;2024-01-15T07:20:49;1.30;99.90
8220;DHT22;4151;51.110;7.020;2024-01-15T07:23:14;1.20;99.90
8220;DHT22;4151;51.110;7.020;2024-01-15T07:25:40;1.10;99.90
8220;DHT22;4151;51.110;7.020;2024-01-15T07:28:06;1.10;99.90
8220;DHT22;4151;51.110;7.020;2024-01-15T07:30:31;1.10;99.90
8220;DHT22;4151;51.110;7.020;2024-01-15T07:32:57;1.10;99.90
8220;DHT22;4151;51.110;7.020;2024-01-15T07:35:22;1.10;99.90
8220;DHT22;4151;51.110;7.020;2024-01-15T07:37:48;1.20;99.90
8220;DHT22;4151;51.110;7.020;2024-01-15T07:40:13;1.20;99.90
8220;DHT22;4151;51.110;7.020;2024-01-15T07:42:39;1.20;99.90
8220;DHT22;4151;51.110;7.020;2024-01-15T07:45:05;1.20;99.90
8220;DHT22;4151;51.110;7.020;2024-01-15T07:47:31;1.20;99.90
8220;DHT22;4151;51.110;7.020;2024-01-15T07:49:57;1.20;99.90
8220;DHT22;4151;51.110;7.020;2024-01-15T07:52:22;1.30;99.90
8220;DHT22;4151;51.110;7.020;2024-01-15T07:54:48;1.30;99.90
8220;DHT22;4151;51.110;7.020;2024-01-15T07:57:14;1.30;99.90
8220;DHT22;4151;51.110;7.020;2024-01-15T07:59:39;1.30;99.90
8220;DHT22;4151;51.110;7.020;2024-01-15T08:02:05;1.30;99.90
8220;DHT22;4151;51.110;7.020;2024-01-15T08:04:31;1.30;99.90
8220;DHT22;4151;51.110;7.020;2024-01-15T08:06:57;1.30;99.90
8220;DHT22;4151;51.110;7.020;2024-01-15T08:09:22;1.30;99.90
8220;DHT22;4151;51.110;7.020;2024-01-15T08:11:48;1.30;99.90
8220;DHT22;4151;51.110;7.020;2024-01-15T08:14:14;1.30;99.90
8220;DHT22;4151;51.110;7.020;2024-01-15T08:16:40;1.30;99.90
8220;DHT22;4151;51.110;7.020;2024-01-15T08:19:06;1.30;99.90
8220;DHT22;4151;51.110;7.020;2024-01-15T08:21:32;1.30;99.90
8220;DHT22;4151;51.110;7.020;2024-01-15T08:24:01;1.30;99.90
8220;DHT22;4151;51.110;7.020;2024-01-15T08:26:30;1.30;99.90
8220;DHT22;4151;51.110;7.020;2024-01-15T08:28:56;1.40;99.90
8220;DHT22;4151;51.110;7.020;2024-01-15T08:31:21;1.40;99.90
8220;DHT22;4151;51.110;7.020;2024-01-15T08:33:47;1.40;99.90
8220;DHT22;4151;51.110;7.020;2024-01-15T08:36:13;1.40;99.90
8220;DHT22;4151;51.110;7.020;2024-01-15T08:38:38;1.40;99.90
8220;DHT22;4151;51.110;7.020;2024-01-15T08:41:04;1.30;99.90
8220;DHT22;4151;51.110;7.020;2024-01-15T08:43:30;1.30;99.90
8220;DHT22;4151;51.110;7.020;2024-01-15T08:45:58;1.20;99.90
8220;DHT22;4151;51.110;7.020;2024-01-15T08:48:24;1.10;99.90
8220;DHT22;4151;51.110;7.020;2024-01-15T08:50:53;1.10;99.90
8220;DHT22;4151;51.110;7.020;2024-01-15T08:53:18;1.00;99.90
8220;DHT22;4151;51.110;7.020;2024-01-15T08:55:44;1.00;99.90
8220;DHT22;4151;51.110;7.020;2024-01-15T08:58:10;0.90;99.90
8220;DHT22;4151;51.110;7.020;2024-01-15T09:00:36;0.90;99.90
8220;DHT22;4151;51.110;7.020;2024-01-15T09:03:02;0.80;99.90
8220;DHT22;4151;51.110;7.020;2024-01-15T09:05:27;0.80;99.90
8220;DHT22;4151;51.110;7.020;2024-01-15T09:07:53;0.70;99.90
8220;DHT22;4151;51.110;7.020;2024-01-15T09:10:19;0.60;99.90
8220;DHT22;4151;51.110;7.020;2024-01-15T09:12:45;0.60;99.90
8220;DHT22;4151;51.110;7.020;2024-01-15T09:15:11;0.60;99.90
8220;DHT22;4151;51.110;7.020;2024-01-15T09:17:36;0.50;99.90
8220;DHT22;4151;51.110;7.020;2024-01-15T09:20:02;0.50;99.90
8220;DHT22;4151;51.110;7.020;2024-01-15T09:22:29;0.50;99.90
8220;DHT22;4151;51.110;7.020;2024-01-15T09:24:55;0.50;99.90
8220;DHT22;4151;51.110;7.020;2024-01-15T09:27:21;0.50;99.90
8220;DHT22;4151;51.110;7.020;2024-01-15T09:29:46;0.40;99.90
8220;DHT22;4151;51.110;7.020;2024-01-15T09:32:12;0.40;99.90
8220;DHT22;4151;51.110;7.020;2024-01-15T09:34:38;0.50;99.90
8220;DHT22;4151;51.110;7.020;2024-01-15T09:37:04;0.50;99.90
8220;DHT22;4151;51.110;7.020;2024-01-15T09:39:30;0.50;99.90
8220;DHT22;4151;51.110;7.020;2024-01-15T09:41:56;0.50;99.90
8220;DHT22;4151;51.110;7.020;2024-01-15T09:44:23;0.50;99.90
8220;DHT22;4151;51.110;7.020;2024-01-15T09:46:48;0.50;99.90
8220;DHT22;4151;51.110;7.020;2024-01-15T09:49:16;0.50;99.90
8220;DHT22;4151;51.110;7.020;2024-01-15T09:51:42;0.50;99.90
8220;DHT22;4151;51.110;7.020;2024-01-15T09:54:08;0.50;99.90
8220;DHT22;4151;51.110;7.020;2024-01-15T09:56:34;0.50;99.90
8220;DHT22;4151;51.110;7.020;2024-01-15T09:59:00;0.50;99.90
8220;DHT22;4151;51.110;7.020;2024-01-15T10:01:26;0.50;99.90
8220;DHT22;4151;51.110;7.020;2024-01-15T10:03:52;0.50;99.90
8220;DHT22;4151;51.110;7.020;2024-01-15T10:06:18;0.50;99.90
8220;DHT22;4151;51.110;7.020;2024-01-15T10:08:48;0.50;99.90
8220;DHT22;4151;51.110;7.020;2024-01-15T10:11:14;0.50;99.90
8220;DHT22;4151;51.110;7.020;2024-01-15T10:13:40;0.50;99.90
8220;DHT22;4151;51.110;7.020;2024-01-15T10:16:06;0.50;99.90
8220;DHT22;4151;51.110;7.020;2024-01-15T10:18:32;0.50;99.90
8220;DHT22;4151;51.110;7.020;2024-01-15T10:20:58;0.50;99.90
8220;DHT22;4151;51.110;7.020;2024-01-15T10:23:24;0.50;99.90
8220;DHT22;4151;51.110;7.020;2024-01-15T10:25:50;0.50;99.90
8220;DHT22;4151;51.110;7.020;2024-01-15T10:28:19;0.50;99.90
8220;DHT22;4151;51.110;7.020;2024-01-15T10:30:44;0.50;99.90
8220;DHT22;4151;51.110;7.020;2024-01-15T10:33:10;0.50;99.90
8220;DHT22;4151;51.110;7.020;2024-01-15T10:35:37;0.60;99.90
8220;DHT22;4151;51.110;7.020;2024-01-15T10:38:03;0.60;99.90
8220;DHT22;4151;51.110;7.020;2024-01-15T10:40:31;0.60;99.90
8220;DHT22;4151;51.110;7.020;2024-01-15T10:42:57;0.60;99.90
8220;DHT22;4151;51.110;7.020;2024-01-15T10:45:23;0.60;99.90
8220;DHT22;4151;51.110;7.020;2024-01-15T10:47:49;0.60;99.90
8220;DHT22;4151;51.110;7.020;2024-01-15T10:50:15;0.60;99.90
8220;DHT22;4151;51.110;7.020;2024-01-15T10:52:42;0.60;99.90
8220;DHT22;4151;51.110;7.020;2024-01-15T10:55:09;0.60;99.90
8220;DHT22;4151;51.110;7.020;2024-01-15T10:57:38;0.60;99.90
8220;DHT22;4151;51.110;7.020;2024-01-15T11:00:04;0.60;99.90
8220;DHT22;4151;51.110;7.020;2024-01-15T11:02:32;0.60;99.90
8220;DHT22;4151;51.110;7.020;2024-01-15T11:04:59;0.60;99.90
8220;DHT22;4151;51.110;7.020;2024-01-15T11:07:26;0.50;99.90
8220;DHT22;4151;51.110;7.020;2024-01-15T11:09:52;0.50;99.90
8220;DHT22;4151;51.110;7.020;2024-01-15T11:12:18;0.50;99.90
8220;DHT22;4151;51.110;7.020;2024-01-15T11:14:49;0.60;99.90
8220;DHT22;4151;51.110;7.020;2024-01-15T11:17:16;0.60;99.90
8220;DHT22;4151;51.110;7.020;2024-01-15T11:25:05;0.70;99.90
8220;DHT22;4151;51.110;7.020;2024-01-15T11:30:11;0.70;99.90
8220;DHT22;4151;51.110;7.020;2024-01-15T11:32:38;0.80;99.90
8220;DHT22;4151;51.110;7.020;2024-01-15T11:35:07;0.80;99.90
8220;DHT22;4151;51.110;7.020;2024-01-15T11:40:37;0.70;99.90
8220;DHT22;4151;51.110;7.020;2024-01-15T11:43:07;0.80;99.90
8220;DHT22;4151;51.110;7.020;2024-01-15T11:45:34;0.80;99.90
8220;DHT22;4151;51.110;7.020;2024-01-15T11:48:10;0.90;99.90
8220;DHT22;4151;51.110;7.020;2024-01-15T11:50:48;0.90;99.90
8220;DHT22;4151;51.110;7.020;2024-01-15T11:53:27;0.90;99.90
8220;DHT22;4151;51.110;7.020;2024-01-15T11:55:58;1.00;99.90
8220;DHT22;4151;51.110;7.020;2024-01-15T11:58:25;1.00;99.90
8220;DHT22;4151;51.110;7.020;2024-01-15T12:00:51;1.00;99.90
8220;DHT22;4151;51.110;7.020;2024-01-15T12:03:20;1.00;99.90
8220;DHT22;4151;51.110;7.020;2024-01-15T12:05:45;1.10;99.90
8220;DHT22;4151;51.110;7.020;2024-01-15T12:08:11;1.10;99.90
8220;DHT22;4151;51.110;7.020;2024-01-15T12:10:38;1.10;99.90
8220;DHT22;4151;51.110;7.020;2024-01-15T12:15:32;1.10;99.90
8220;DHT22;4151;51.110;7.020;2024-01-15T12:17:59;1.10;99.90
8220;DHT22;4151;51.110;7.020;2024-01-15T12:20:26;1.20;99.90
8220;DHT22;4151;51.110;7.020;2024-01-15T12:22:52;1.30;99.90
8220;DHT22;4151;51.110;7.020;2024-01-15T12:25:17;1.30;99.90
8220;DHT22;4151;51.110;7.020;2024-01-15T12:27:43;1.30;99.90
8220;DHT22;4151;51.110;7.020;2024-01-15T12:30:13;1.30;99.90
8220;DHT22;4151;51.110;7.020;2024-01-15T12:32:40;1.30;99.90
8220;DHT22;4151;51.110;7.020;2024-01-15T12:35:07;1.30;99.90
8220;DHT22;4151;51.110;7.020;2024-01-15T12:37:35;1.30;99.90
8220;DHT22;4151;51.110;7.020;2024-01-15T12:40:02;1.30;99.90
8220;DHT22;4151;51.110;7.020;2024-01-15T12:42:28;1.30;99.90
8220;DHT22;4151;51.110;7.020;2024-01-15T12:44:57;1.30;99.90
8220;DHT22;4151;51.110;7.020;2024-01-15T12:47:22;1.30;99.90
8220;DHT22;4151;51.110;7.020;2024-01-15T12:49:48;1.40;99.90
8220;DHT22;4151;51.110;7.020;2024-01-15T12:52:18;1.40;99.90
8220;DHT22;4151;51.110;7.020;2024-01-15T12:54:44;1.40;99.90
8220;DHT22;4151;51.110;7.020;2024-01-15T12:57:09;1.40;99.90
8220;DHT22;4151;51.110;7.020;2024-01-15T12:59:35;1.40;99.90
8220;DHT22;4151;51.110;7.020;2024-01-15T13:02:00;1.40;99.90
8220;DHT22;4151;51.110;7.020;2024-01-15T13:04:26;1.40;99.90
8220;DHT22;4151;51.110;7.020;2024-01-15T13:06:51;1.40;99.90
8220;DHT22;4151;51.110;7.020;2024-01-15T13:09:17;1.40;99.90
8220;DHT22;4151;51.110;7.020;2024-01-15T13:11:46;1.50;99.90
8220;DHT22;4151;51.110;7.020;2024-01-15T13:14:12;1.50;99.90
8220;DHT22;4151;51.110;7.020;2024-01-15T13:16:40;1.50;99.90
8220;DHT22;4151;51.110;7.020;2024-01-15T13:19:07;1.50;99.90
8220;DHT22;4151;51.110;7.020;2024-01-15T13:21:34;1.50;99.90
8220;DHT22;4151;51.110;7.020;2024-01-15T13:23:59;1.50;99.90
8220;DHT22;4151;51.110;7.020;2024-01-15T13:26:25;1.50;99.90
8220;DHT22;4151;51.110;7.020;2024-01-15T13:28:50;1.50;99.90
8220;DHT22;4151;51.110;7.020;2024-01-15T13:31:16;1.50;99.90
8220;DHT22;4151;51.110;7.020;2024-01-15T13:33:42;1.50;99.90
8220;DHT22;4151;51.110;7.020;2024-01-15T13:36:08;1.50;99.90
8220;DHT22;4151;51.110;7.020;2024-01-15T13:38:36;1.50;99.90
8220;DHT22;4151;51.110;7.020;2024-01-15T13:41:04;1.50;99.90
8220;DHT22;4151;51.110;7.020;2024-01-15T13:43:29;1.50;99.90
8220;DHT22;4151;51.110;7.020;2024-01-15T13:45:55;1.50;99.90
8220;DHT22;4151;51.110;7.020;2024-01-15T13:48:21;1.40;99.90
8220;DHT22;4151;51.110;7.020;2024-01-15T13:50:46;1.40;99.90
8220;DHT22;4151;51.110;7.020;2024-01-15T13:53:12;1.40;99.90
8220;DHT22;4151;51.110;7.020;2024-01-15T13:55:37;1.40;99.90
8220;DHT22;4151;51.110;7.020;2024-01-15T13:58:03;1.40;99.90
8220;DHT22;4151;51.110;7.020;2024-01-15T14:00:31;1.40;99.90
8220;DHT22;4151;51.110;7.020;2024-01-15T14:02:57;1.40;99.90
8220;DHT22;4151;51.110;7.020;2024-01-15T14:05:23;1.30;99.90
8220;DHT22;4151;51.110;7.020;2024-01-15T14:07:48;1.30;99.90
8220;DHT22;4151;51.110;7.020;2024-01-15T14:10:14;1.30;99.90
8220;DHT22;4151;51.110;7.020;2024-01-15T14:12:40;1.30;99.90
8220;DHT22;4151;51.110;7.020;2024-01-15T14:15:06;1.30;99.90
8220;DHT22;4151;51.110;7.020;2024-01-15T14:17:32;1.30;99.90
8220;DHT22;4151;51.110;7.020;2024-01-15T14:19:57;1.20;99.90
8220;DHT22;4151;51.110;7.020;2024-01-15T14:22:23;1.30;99.90
8220;DHT22;4151;51.110;7.020;2024-01-15T14:24:48;1.30;99.90
8220;DHT22;4151;51.110;7.020;2024-01-15T14:27:15;1.20;99.90
8220;DHT22;4151;51.110;7.020;2024-01-15T14:29:40;1.20;99.90
8220;DHT22;4151;51.110;7.020;2024-01-15T14:32:06;1.30;99.90
8220;DHT22;4151;51.110;7.020;2024-01-15T14:34:32;1.30;99.90
8220;DHT22;4151;51.110;7.020;2024-01-15T14:36:57;1.30;99.90
8220;DHT22;4151;51.110;7.020;2024-01-15T14:39:23;1.30;99.90
8220;DHT22;4151;51.110;7.020;2024-01-15T14:41:49;1.30;99.90
8220;DHT22;4151;51.110;7.020;2024-01-15T14:44:14;1.30;99.90
8220;DHT22;4151;51.110;7.020;2024-01-15T14:46:40;1.40;99.90
8220;DHT22;4151;51.110;7.020;2024-01-15T14:49:06;1.40;99.90
8220;DHT22;4151;51.110;7.020;2024-01-15T14:51:32;1.40;99.90
8220;DHT22;4151;51.110;7.020;2024-01-15T14:53:57;1.40;99.90
8220;DHT22;4151;51.110;7.020;2024-01-15T14:56:23;1.40;99.90
8220;DHT22;4151;51.110;7.020;2024-01-15T14:58:49;1.40;99.90
8220;DHT22;4151;51.110;7.020;2024-01-15T15:01:14;1.40;99.90
8220;DHT22;4151;51.110;7.020;2024-01-15T15:03:40;1.40;99.90
8220;DHT22;4151;51.110;7.020;2024-01-15T15:06:06;1.40;99.90
8220;DHT22;4151;51.110;7.020;2024-01-15T15:08:33;1.40;99.90
8220;DHT22;4151;51.110;7.020;2024-01-15T15:10:59;1.40;99.90
8220;DHT22;4151;51.110;7.020;2024-01-15T15:13:25;1.40;99.90
8220;DHT22;4151;51.110;7.020;2024-01-15T15:15:52;1.40;99.90
8220;DHT22;4151;51.110;7.020;2024-01-15T15:18:17;1.40;99.90
8220;DHT22;4151;51.110;7.020;2024-01-15T15:20:43;1.40;99.90
8220;DHT22;4151;51.110;7.020;2024-01-15T15:23:08;1.30;99.90
8220;DHT22;4151;51.110;7.020;2024-01-15T15:25:36;1.30;99.90
8220;DHT22;4151;51.110;7.020;2024-01-15T15:28:02;1.30;99.90
8220;DHT22;4151;51.110;7.020;2024-01-15T15:30:30;1.30;99.90
8220;DHT22;4151;51.110;7.020;2024-01-15T15:32:56;1.30;99.90
8220;DHT22;4151;51.110;7.020;2024-01-15T15:35:21;1.30;99.90
8220;DHT22;4151;51.110;7.020;2024-01-15T15:37:47;1.30;99.90
8220;DHT22;4151;51.110;7.020;2024-01-15T15:40:12;1.30;99.90
8220;DHT22;4151;51.110;7.020;2024-01-15T15:42:38;1.30;99.90
8220;DHT22;4151;51.110;7.020;2024-01-15T15:45:04;1.30;99.90
8220;DHT22;4151;51.110;7.020;2024-01-15T15:47:30;1.20;99.90
8220;DHT22;4151;51.110;7.020;2024-01-15T15:49:56;1.10;99.90
8220;DHT22;4151;51.110;7.020;2024-01-15T15:52:22;1.10;99.90
8220;DHT22;4151;51.110;7.020;2024-01-15T15:54:47;1.10;99.90
8220;DHT22;4151;51.110;7.020;2024-01-15T15:57:13;1.00;99.90
8220;DHT22;4151;51.110;7.020;2024-01-15T15:59:38;0.90;99.90
8220;DHT22;4151;51.110;7.020;2024-01-15T16:02:04;0.90;99.90
8220;DHT22;4151;51.110;7.020;2024-01-15T16:04:29;0.90;99.90
8220;DHT22;4151;51.110;7.020;2024-01-15T16:06:55;0.80;99.90
8220;DHT22;4151;51.110;7.020;2024-01-15T16:09:21;0.80;99.90
8220;DHT22;4151;51.110;7.020;2024-01-15T16:11:47;0.80;99.90
8220;DHT22;4151;51.110;7.020;2024-01-15T16:14:13;0.80;99.90
8220;DHT22;4151;51.110;7.020;2024-01-15T16:16:39;0.80;99.90
8220;DHT22;4151;51.110;7.020;2024-01-15T16:19:04;0.80;99.90
8220;DHT22;4151;51.110;7.020;2024-01-15T16:21:30;0.80;99.90